sensor_id;sensor_type;location;lat;lon;timestamp;P1;durP1;ratioP1;P2;durP2;ratioP2
58928;SDS011;44713;53.378;10.022;2023-03-29T00:01:05;9.25;;;2.80;;
58928;SDS011;44713;53.378;10.022;2023-03-29T00:03:31;10.88;;;2.60;;
58928;SDS011;44713;53.378;10.022;2023-03-29T00:05:58;8.02;;;3.08;;
58928;SDS011;44713;53.378;10.022;2023-03-29T00:08:27;7.93;;;2.95;;
58928;SDS011;44713;53.378;10.022;2023-03-29T00:10:54;9.32;;;2.70;;
58928;SDS011;44713;53.378;10.022;2023-03-29T00:13:21;7.07;;;2.38;;
58928;SDS011;44713;53.378;10.022;2023-03-29T00:15:46;7.57;;;2.45;;
58928;SDS011;44713;53.378;10.022;2023-03-29T00:18:11;8.88;;;3.03;;
58928;SDS011;44713;53.378;10.022;2023-03-29T00:20:38;8.85;;;2.80;;
58928;SDS011;44713;53.378;10.022;2023-03-29T00:23:03;10.75;;;3.30;;
58928;SDS011;44713;53.378;10.022;2023-03-29T00:25:29;9.13;;;4.03;;
58928;SDS011;44713;53.378;10.022;2023-03-29T00:27:54;8.05;;;3.80;;
58928;SDS011;44713;53.378;10.022;2023-03-29T00:30:19;8.60;;;3.00;;
58928;SDS011;44713;53.378;10.022;2023-03-29T00:32:45;10.13;;;4.07;;
58928;SDS011;44713;53.378;10.022;2023-03-29T00:35:10;10.60;;;3.50;;
58928;SDS011;44713;53.378;10.022;2023-03-29T00:37:36;10.02;;;3.17;;
58928;SDS011;44713;53.378;10.022;2023-03-29T00:40:02;13.30;;;3.47;;
58928;SDS011;44713;53.378;10.022;2023-03-29T00:42:34;12.25;;;3.63;;
58928;SDS011;44713;53.378;10.022;2023-03-29T00:47:33;9.68;;;3.17;;
58928;SDS011;44713;53.378;10.022;2023-03-29T00:50:11;6.30;;;2.67;;
58928;SDS011;44713;53.378;10.022;2023-03-29T00:52:40;9.32;;;3.13;;
58928;SDS011;44713;53.378;10.022;2023-03-29T00:55:10;8.80;;;2.42;;
58928;SDS011;44713;53.378;10.022;2023-03-29T00:57:41;7.90;;;2.53;;
58928;SDS011;44713;53.378;10.022;2023-03-29T01:00:10;6.22;;;2.30;;
58928;SDS011;44713;53.378;10.022;2023-03-29T01:02:38;9.77;;;2.20;;
58928;SDS011;44713;53.378;10.022;2023-03-29T01:05:07;8.50;;;2.33;;
58928;SDS011;44713;53.378;10.022;2023-03-29T01:07:45;5.80;;;2.17;;
58928;SDS011;44713;53.378;10.022;2023-03-29T01:10:26;10.50;;;2.33;;
58928;SDS011;44713;53.378;10.022;2023-03-29T01:12:59;10.85;;;2.33;;
58928;SDS011;44713;53.378;10.022;2023-03-29T01:15:28;7.30;;;2.03;;
58928;SDS011;44713;53.378;10.022;2023-03-29T01:17:55;4.63;;;1.90;;
58928;SDS011;44713;53.378;10.022;2023-03-29T01:23:42;5.18;;;2.00;;
58928;SDS011;44713;53.378;10.022;2023-03-29T01:26:09;4.57;;;2.00;;
58928;SDS011;44713;53.378;10.022;2023-03-29T01:31:26;7.35;;;2.00;;
58928;SDS011;44713;53.378;10.022;2023-03-29T01:36:31;5.22;;;1.70;;
58928;SDS011;44713;53.378;10.022;2023-03-29T01:39:02;11.77;;;2.15;;
58928;SDS011;44713;53.378;10.022;2023-03-29T01:41:45;6.97;;;2.30;;
58928;SDS011;44713;53.378;10.022;2023-03-29T01:44:17;8.38;;;2.28;;
58928;SDS011;44713;53.378;10.022;2023-03-29T01:46:53;6.25;;;2.35;;
58928;SDS011;44713;53.378;10.022;2023-03-29T01:50:27;4.97;;;1.73;;
58928;SDS011;44713;53.378;10.022;2023-03-29T01:52:35;8.57;;;1.88;;
58928;SDS011;44713;53.378;10.022;2023-03-29T01:55:07;5.18;;;2.30;;
58928;SDS011;44713;53.378;10.022;2023-03-29T01:57:40;4.72;;;1.80;;
58928;SDS011;44713;53.378;10.022;2023-03-29T02:00:11;5.53;;;1.98;;
58928;SDS011;44713;53.378;10.022;2023-03-29T02:02:43;5.13;;;1.70;;
58928;SDS011;44713;53.378;10.022;2023-03-29T02:05:11;7.47;;;2.22;;
58928;SDS011;44713;53.378;10.022;2023-03-29T02:07:38;5.50;;;1.77;;
58928;SDS011;44713;53.378;10.022;2023-03-29T02:10:07;8.80;;;2.40;;
58928;SDS011;44713;53.378;10.022;2023-03-29T02:12:35;7.30;;;2.10;;
58928;SDS011;44713;53.378;10.022;2023-03-29T02:15:03;9.80;;;2.05;;
58928;SDS011;44713;53.378;10.022;2023-03-29T02:17:35;6.25;;;2.08;;
58928;SDS011;44713;53.378;10.022;2023-03-29T02:20:14;9.00;;;2.28;;
58928;SDS011;44713;53.378;10.022;2023-03-29T02:22:51;8.63;;;2.25;;
58928;SDS011;44713;53.378;10.022;2023-03-29T02:25:19;5.80;;;2.03;;
58928;SDS011;44713;53.378;10.022;2023-03-29T02:27:46;5.45;;;2.15;;
58928;SDS011;44713;53.378;10.022;2023-03-29T02:30:13;21.52;;;3.92;;
58928;SDS011;44713;53.378;10.022;2023-03-29T02:33:15;7.93;;;2.30;;
58928;SDS011;44713;53.378;10.022;2023-03-29T02:35:45;10.70;;;2.40;;
58928;SDS011;44713;53.378;10.022;2023-03-29T02:38:18;9.38;;;2.15;;
58928;SDS011;44713;53.378;10.022;2023-03-29T02:40:44;5.50;;;2.10;;
58928;SDS011;44713;53.378;10.022;2023-03-29T02:43:10;4.05;;;1.83;;
58928;SDS011;44713;53.378;10.022;2023-03-29T02:45:38;6.43;;;2.40;;
58928;SDS011;44713;53.378;10.022;2023-03-29T02:48:06;3.72;;;2.17;;
58928;SDS011;44713;53.378;10.022;2023-03-29T02:50:36;8.52;;;1.80;;
58928;SDS011;44713;53.378;10.022;2023-03-29T02:53:05;8.75;;;2.33;;
58928;SDS011;44713;53.378;10.022;2023-03-29T02:55:39;5.93;;;2.03;;
58928;SDS011;44713;53.378;10.022;2023-03-29T02:58:05;7.45;;;1.92;;
58928;SDS011;44713;53.378;10.022;2023-03-29T03:00:35;6.40;;;1.80;;
58928;SDS011;44713;53.378;10.022;2023-03-29T03:03:07;7.78;;;2.10;;
58928;SDS011;44713;53.378;10.022;2023-03-29T03:05:33;8.40;;;2.22;;
58928;SDS011;44713;53.378;10.022;2023-03-29T03:08:00;9.05;;;3.33;;
58928;SDS011;44713;53.378;10.022;2023-03-29T03:10:27;5.78;;;2.13;;
58928;SDS011;44713;53.378;10.022;2023-03-29T03:12:53;8.52;;;2.33;;
58928;SDS011;44713;53.378;10.022;2023-03-29T03:15:18;6.78;;;2.05;;
58928;SDS011;44713;53.378;10.022;2023-03-29T03:17:45;4.38;;;2.08;;
58928;SDS011;44713;53.378;10.022;2023-03-29T03:20:11;5.32;;;2.03;;
58928;SDS011;44713;53.378;10.022;2023-03-29T03:22:39;10.38;;;2.40;;
58928;SDS011;44713;53.378;10.022;2023-03-29T03:25:09;5.35;;;2.00;;
58928;SDS011;44713;53.378;10.022;2023-03-29T03:27:35;4.30;;;2.13;;
58928;SDS011;44713;53.378;10.022;2023-03-29T03:30:03;7.53;;;2.25;;
58928;SDS011;44713;53.378;10.022;2023-03-29T03:32:49;6.63;;;2.28;;
58928;SDS011;44713;53.378;10.022;2023-03-29T03:35:42;11.10;;;2.35;;
58928;SDS011;44713;53.378;10.022;2023-03-29T03:38:12;6.93;;;1.90;;
58928;SDS011;44713;53.378;10.022;2023-03-29T03:40:37;5.50;;;2.35;;
58928;SDS011;44713;53.378;10.022;2023-03-29T03:43:03;7.80;;;2.38;;
58928;SDS011;44713;53.378;10.022;2023-03-29T03:45:28;7.85;;;2.38;;
58928;SDS011;44713;53.378;10.022;2023-03-29T03:48:15;6.45;;;2.72;;
58928;SDS011;44713;53.378;10.022;2023-03-29T03:50:51;6.60;;;2.80;;
58928;SDS011;44713;53.378;10.022;2023-03-29T03:53:18;6.43;;;2.40;;
58928;SDS011;44713;53.378;10.022;2023-03-29T03:56:23;5.82;;;2.00;;
58928;SDS011;44713;53.378;10.022;2023-03-29T03:59:13;8.93;;;2.47;;
58928;SDS011;44713;53.378;10.022;2023-03-29T04:02:07;4.32;;;2.72;;
58928;SDS011;44713;53.378;10.022;2023-03-29T04:04:35;3.92;;;2.53;;
58928;SDS011;44713;53.378;10.022;2023-03-29T04:07:14;7.85;;;3.00;;
58928;SDS011;44713;53.378;10.022;2023-03-29T04:10:08;6.15;;;2.78;;
58928;SDS011;44713;53.378;10.022;2023-03-29T04:12:58;7.93;;;2.72;;
58928;SDS011;44713;53.378;10.022;2023-03-29T04:15:27;9.63;;;2.80;;
58928;SDS011;44713;53.378;10.022;2023-03-29T04:18:02;10.45;;;3.33;;
58928;SDS011;44713;53.378;10.022;2023-03-29T04:20:31;7.63;;;2.45;;
58928;SDS011;44713;53.378;10.022;2023-03-29T04:22:58;6.45;;;2.80;;
58928;SDS011;44713;53.378;10.022;2023-03-29T04:25:24;8.73;;;2.78;;
58928;SDS011;44713;53.378;10.022;2023-03-29T04:28:09;8.57;;;2.92;;
58928;SDS011;44713;53.378;10.022;2023-03-29T04:30:45;9.57;;;2.97;;
58928;SDS011;44713;53.378;10.022;2023-03-29T04:33:27;8.68;;;3.08;;
58928;SDS011;44713;53.378;10.022;2023-03-29T04:35:57;4.80;;;2.53;;
58928;SDS011;44713;53.378;10.022;2023-03-29T04:38:23;11.18;;;3.08;;
58928;SDS011;44713;53.378;10.022;2023-03-29T04:40:50;9.20;;;3.00;;
58928;SDS011;44713;53.378;10.022;2023-03-29T04:43:24;11.70;;;3.50;;
58928;SDS011;44713;53.378;10.022;2023-03-29T04:45:55;10.70;;;3.75;;
58928;SDS011;44713;53.378;10.022;2023-03-29T04:48:44;12.35;;;4.05;;
58928;SDS011;44713;53.378;10.022;2023-03-29T04:51:10;12.20;;;3.75;;
58928;SDS011;44713;53.378;10.022;2023-03-29T04:53:35;12.23;;;3.85;;
58928;SDS011;44713;53.378;10.022;2023-03-29T04:56:01;8.30;;;4.15;;
58928;SDS011;44713;53.378;10.022;2023-03-29T04:58:47;12.90;;;5.00;;
58928;SDS011;44713;53.378;10.022;2023-03-29T05:01:13;10.00;;;4.32;;
58928;SDS011;44713;53.378;10.022;2023-03-29T05:03:42;11.45;;;4.82;;
58928;SDS011;44713;53.378;10.022;2023-03-29T05:06:21;6.50;;;4.72;;
58928;SDS011;44713;53.378;10.022;2023-03-29T05:08:47;9.15;;;4.93;;
58928;SDS011;44713;53.378;10.022;2023-03-29T05:11:20;8.98;;;4.78;;
58928;SDS011;44713;53.378;10.022;2023-03-29T05:13:48;9.98;;;5.03;;
58928;SDS011;44713;53.378;10.022;2023-03-29T05:16:14;9.52;;;4.55;;
58928;SDS011;44713;53.378;10.022;2023-03-29T05:18:40;10.18;;;5.05;;
58928;SDS011;44713;53.378;10.022;2023-03-29T05:21:05;8.90;;;4.80;;
58928;SDS011;44713;53.378;10.022;2023-03-29T05:23:33;10.80;;;4.70;;
58928;SDS011;44713;53.378;10.022;2023-03-29T05:26:22;8.10;;;4.60;;
58928;SDS011;44713;53.378;10.022;2023-03-29T05:28:51;8.80;;;4.95;;
58928;SDS011;44713;53.378;10.022;2023-03-29T05:31:16;8.55;;;5.53;;
58928;SDS011;44713;53.378;10.022;2023-03-29T05:33:48;9.65;;;5.47;;
58928;SDS011;44713;53.378;10.022;2023-03-29T05:36:16;16.92;;;5.55;;
58928;SDS011;44713;53.378;10.022;2023-03-29T05:38:46;10.18;;;4.78;;
58928;SDS011;44713;53.378;10.022;2023-03-29T05:41:12;10.32;;;4.90;;
58928;SDS011;44713;53.378;10.022;2023-03-29T05:43:53;12.90;;;5.15;;
58928;SDS011;44713;53.378;10.022;2023-03-29T05:46:22;10.55;;;5.65;;
58928;SDS011;44713;53.378;10.022;2023-03-29T05:48:50;7.72;;;4.93;;
58928;SDS011;44713;53.378;10.022;2023-03-29T05:51:17;9.82;;;5.28;;
58928;SDS011;44713;53.378;10.022;2023-03-29T05:53:43;12.15;;;5.70;;
58928;SDS011;44713;53.378;10.022;2023-03-29T05:56:09;10.27;;;4.60;;
58928;SDS011;44713;53.378;10.022;2023-03-29T05:58:36;12.23;;;5.45;;
58928;SDS011;44713;53.378;10.022;2023-03-29T06:01:02;9.98;;;4.95;;
58928;SDS011;44713;53.378;10.022;2023-03-29T06:03:47;9.82;;;4.68;;
58928;SDS011;44713;53.378;10.022;2023-03-29T06:06:13;8.57;;;4.50;;
58928;SDS011;44713;53.378;10.022;2023-03-29T06:08:40;11.18;;;5.45;;
58928;SDS011;44713;53.378;10.022;2023-03-29T06:11:25;9.40;;;4.60;;
58928;SDS011;44713;53.378;10.022;2023-03-29T06:14:08;7.82;;;4.25;;
58928;SDS011;44713;53.378;10.022;2023-03-29T06:16:39;11.85;;;4.53;;
58928;SDS011;44713;53.378;10.022;2023-03-29T06:19:05;6.95;;;4.65;;
58928;SDS011;44713;53.378;10.022;2023-03-29T06:21:32;7.35;;;4.35;;
58928;SDS011;44713;53.378;10.022;2023-03-29T06:23:58;11.48;;;4.80;;
58928;SDS011;44713;53.378;10.022;2023-03-29T06:26:26;8.65;;;4.50;;
58928;SDS011;44713;53.378;10.022;2023-03-29T06:28:52;8.75;;;4.20;;
58928;SDS011;44713;53.378;10.022;2023-03-29T06:31:18;11.23;;;4.80;;
58928;SDS011;44713;53.378;10.022;2023-03-29T06:33:44;9.25;;;4.80;;
58928;SDS011;44713;53.378;10.022;2023-03-29T06:36:40;5.10;;;4.25;;
58928;SDS011;44713;53.378;10.022;2023-03-29T06:39:05;7.93;;;4.60;;
58928;SDS011;44713;53.378;10.022;2023-03-29T06:41:47;10.43;;;4.65;;
58928;SDS011;44713;53.378;10.022;2023-03-29T06:44:31;9.75;;;4.93;;
58928;SDS011;44713;53.378;10.022;2023-03-29T06:47:03;10.35;;;4.65;;
58928;SDS011;44713;53.378;10.022;2023-03-29T06:49:29;9.52;;;4.70;;
58928;SDS011;44713;53.378;10.022;2023-03-29T06:52:04;7.30;;;4.85;;
58928;SDS011;44713;53.378;10.022;2023-03-29T06:54:30;9.27;;;4.47;;
58928;SDS011;44713;53.378;10.022;2023-03-29T06:56:59;7.60;;;4.55;;
58928;SDS011;44713;53.378;10.022;2023-03-29T06:59:27;7.80;;;4.63;;
58928;SDS011;44713;53.378;10.022;2023-03-29T07:02:10;8.82;;;4.45;;
58928;SDS011;44713;53.378;10.022;2023-03-29T07:05:14;7.25;;;4.28;;
58928;SDS011;44713;53.378;10.022;2023-03-29T07:07:44;7.03;;;3.90;;
58928;SDS011;44713;53.378;10.022;2023-03-29T07:10:34;11.27;;;4.95;;
58928;SDS011;44713;53.378;10.022;2023-03-29T07:13:20;10.68;;;4.78;;
58928;SDS011;44713;53.378;10.022;2023-03-29T07:15:48;8.20;;;4.28;;
58928;SDS011;44713;53.378;10.022;2023-03-29T07:18:18;7.68;;;4.28;;
58928;SDS011;44713;53.378;10.022;2023-03-29T07:20:43;8.27;;;4.80;;
58928;SDS011;44713;53.378;10.022;2023-03-29T07:23:14;9.52;;;4.05;;
58928;SDS011;44713;53.378;10.022;2023-03-29T07:25:39;6.35;;;4.20;;
58928;SDS011;44713;53.378;10.022;2023-03-29T07:28:06;8.23;;;5.13;;
58928;SDS011;44713;53.378;10.022;2023-03-29T07:30:32;6.95;;;4.22;;
58928;SDS011;44713;53.378;10.022;2023-03-29T07:33:09;17.85;;;5.38;;
58928;SDS011;44713;53.378;10.022;2023-03-29T07:35:47;6.88;;;4.32;;
58928;SDS011;44713;53.378;10.022;2023-03-29T07:38:12;6.82;;;4.30;;
58928;SDS011;44713;53.378;10.022;2023-03-29T07:40:44;8.85;;;4.55;;
58928;SDS011;44713;53.378;10.022;2023-03-29T07:43:41;7.18;;;4.03;;
58928;SDS011;44713;53.378;10.022;2023-03-29T07:46:08;5.97;;;3.83;;
58928;SDS011;44713;53.378;10.022;2023-03-29T07:48:35;7.40;;;3.95;;
58928;SDS011;44713;53.378;10.022;2023-03-29T07:51:04;8.23;;;3.83;;
58928;SDS011;44713;53.378;10.022;2023-03-29T07:53:38;8.70;;;4.20;;
58928;SDS011;44713;53.378;10.022;2023-03-29T07:56:10;5.15;;;3.90;;
58928;SDS011;44713;53.378;10.022;2023-03-29T07:58:49;6.13;;;3.85;;
58928;SDS011;44713;53.378;10.022;2023-03-29T08:01:16;7.20;;;3.90;;
58928;SDS011;44713;53.378;10.022;2023-03-29T08:04:09;7.65;;;3.78;;
58928;SDS011;44713;53.378;10.022;2023-03-29T08:06:53;7.45;;;3.90;;
58928;SDS011;44713;53.378;10.022;2023-03-29T08:09:21;8.35;;;4.28;;
58928;SDS011;44713;53.378;10.022;2023-03-29T08:11:47;5.57;;;3.92;;
58928;SDS011;44713;53.378;10.022;2023-03-29T08:14:18;5.15;;;4.60;;
58928;SDS011;44713;53.378;10.022;2023-03-29T08:17:04;5.38;;;4.00;;
58928;SDS011;44713;53.378;10.022;2023-03-29T08:19:36;5.65;;;3.65;;
58928;SDS011;44713;53.378;10.022;2023-03-29T08:22:04;5.30;;;3.63;;
58928;SDS011;44713;53.378;10.022;2023-03-29T08:24:49;4.93;;;3.30;;
58928;SDS011;44713;53.378;10.022;2023-03-29T08:27:15;5.28;;;4.05;;
58928;SDS011;44713;53.378;10.022;2023-03-29T08:29:41;4.93;;;3.92;;
58928;SDS011;44713;53.378;10.022;2023-03-29T08:32:07;5.80;;;3.90;;
58928;SDS011;44713;53.378;10.022;2023-03-29T08:34:33;8.43;;;3.90;;
58928;SDS011;44713;53.378;10.022;2023-03-29T08:37:16;5.97;;;3.65;;
58928;SDS011;44713;53.378;10.022;2023-03-29T08:39:44;6.97;;;3.55;;
58928;SDS011;44713;53.378;10.022;2023-03-29T08:46:14;7.57;;;3.53;;
58928;SDS011;44713;53.378;10.022;2023-03-29T08:48:53;7.45;;;3.60;;
58928;SDS011;44713;53.378;10.022;2023-03-29T08:53:57;6.35;;;3.95;;
58928;SDS011;44713;53.378;10.022;2023-03-29T08:56:42;8.77;;;4.25;;
58928;SDS011;44713;53.378;10.022;2023-03-29T08:59:26;5.55;;;4.03;;
58928;SDS011;44713;53.378;10.022;2023-03-29T09:01:56;7.45;;;3.88;;
58928;SDS011;44713;53.378;10.022;2023-03-29T09:04:24;5.15;;;3.88;;
58928;SDS011;44713;53.378;10.022;2023-03-29T09:07:07;5.57;;;3.78;;
58928;SDS011;44713;53.378;10.022;2023-03-29T09:09:38;5.45;;;3.90;;
58928;SDS011;44713;53.378;10.022;2023-03-29T09:12:34;5.28;;;3.70;;
58928;SDS011;44713;53.378;10.022;2023-03-29T09:18:39;5.18;;;3.30;;
58928;SDS011;44713;53.378;10.022;2023-03-29T09:22:05;6.60;;;3.47;;
58928;SDS011;44713;53.378;10.022;2023-03-29T09:27:27;5.35;;;3.72;;
58928;SDS011;44713;53.378;10.022;2023-03-29T09:30:13;5.50;;;4.05;;
58928;SDS011;44713;53.378;10.022;2023-03-29T09:35:58;6.88;;;4.03;;
58928;SDS011;44713;53.378;10.022;2023-03-29T09:38:29;10.70;;;4.43;;
58928;SDS011;44713;53.378;10.022;2023-03-29T09:41:03;6.53;;;4.00;;
58928;SDS011;44713;53.378;10.022;2023-03-29T09:43:39;5.30;;;3.47;;
58928;SDS011;44713;53.378;10.022;2023-03-29T09:46:18;5.57;;;4.18;;
58928;SDS011;44713;53.378;10.022;2023-03-29T09:48:47;8.45;;;3.75;;
58928;SDS011;44713;53.378;10.022;2023-03-29T09:51:14;5.22;;;3.88;;
58928;SDS011;44713;53.378;10.022;2023-03-29T09:53:44;8.20;;;4.50;;
58928;SDS011;44713;53.378;10.022;2023-03-29T09:56:27;7.53;;;4.38;;
58928;SDS011;44713;53.378;10.022;2023-03-29T09:59:03;6.63;;;4.20;;
58928;SDS011;44713;53.378;10.022;2023-03-29T10:01:41;6.55;;;4.28;;
58928;SDS011;44713;53.378;10.022;2023-03-29T10:04:11;9.20;;;4.43;;
58928;SDS011;44713;53.378;10.022;2023-03-29T10:06:43;8.65;;;4.63;;
58928;SDS011;44713;53.378;10.022;2023-03-29T10:09:14;6.15;;;4.68;;
58928;SDS011;44713;53.378;10.022;2023-03-29T10:11:51;6.72;;;4.50;;
58928;SDS011;44713;53.378;10.022;2023-03-29T10:14:19;5.68;;;4.65;;
58928;SDS011;44713;53.378;10.022;2023-03-29T10:16:54;6.57;;;4.53;;
58928;SDS011;44713;53.378;10.022;2023-03-29T10:19:30;6.88;;;4.97;;
58928;SDS011;44713;53.378;10.022;2023-03-29T10:22:15;10.25;;;4.80;;
58928;SDS011;44713;53.378;10.022;2023-03-29T10:24:49;10.00;;;5.43;;
58928;SDS011;44713;53.378;10.022;2023-03-29T10:27:18;6.90;;;4.87;;
58928;SDS011;44713;53.378;10.022;2023-03-29T10:29:46;8.40;;;4.80;;
58928;SDS011;44713;53.378;10.022;2023-03-29T10:34:47;7.07;;;5.00;;
58928;SDS011;44713;53.378;10.022;2023-03-29T10:37:14;10.45;;;5.63;;
58928;SDS011;44713;53.378;10.022;2023-03-29T10:39:43;5.47;;;4.30;;
58928;SDS011;44713;53.378;10.022;2023-03-29T10:42:11;7.75;;;4.82;;
58928;SDS011;44713;53.378;10.022;2023-03-29T10:44:39;6.22;;;4.75;;
58928;SDS011;44713;53.378;10.022;2023-03-29T10:47:15;6.97;;;4.70;;
58928;SDS011;44713;53.378;10.022;2023-03-29T10:49:44;9.48;;;5.13;;
58928;SDS011;44713;53.378;10.022;2023-03-29T10:52:14;8.32;;;4.75;;
58928;SDS011;44713;53.378;10.022;2023-03-29T10:54:41;9.38;;;6.05;;
58928;SDS011;44713;53.378;10.022;2023-03-29T10:57:07;14.10;;;5.32;;
58928;SDS011;44713;53.378;10.022;2023-03-29T11:02:18;10.27;;;5.70;;
58928;SDS011;44713;53.378;10.022;2023-03-29T11:07:27;9.02;;;4.70;;
58928;SDS011;44713;53.378;10.022;2023-03-29T11:21:13;8.63;;;5.63;;
58928;SDS011;44713;53.378;10.022;2023-03-29T11:26:40;8.10;;;5.38;;
58928;SDS011;44713;53.378;10.022;2023-03-29T11:29:30;11.10;;;5.55;;
58928;SDS011;44713;53.378;10.022;2023-03-29T11:32:17;8.45;;;5.22;;
58928;SDS011;44713;53.378;10.022;2023-03-29T11:35:15;9.68;;;5.00;;
58928;SDS011;44713;53.378;10.022;2023-03-29T11:37:50;7.35;;;5.15;;
58928;SDS011;44713;53.378;10.022;2023-03-29T11:43:17;9.30;;;5.45;;
58928;SDS011;44713;53.378;10.022;2023-03-29T11:45:54;9.82;;;5.78;;
58928;SDS011;44713;53.378;10.022;2023-03-29T11:48:26;11.27;;;5.72;;
58928;SDS011;44713;53.378;10.022;2023-03-29T11:51:02;9.55;;;5.43;;
58928;SDS011;44713;53.378;10.022;2023-03-29T11:53:38;12.40;;;6.90;;
58928;SDS011;44713;53.378;10.022;2023-03-29T11:59:13;8.95;;;6.90;;
58928;SDS011;44713;53.378;10.022;2023-03-29T12:01:47;10.85;;;6.93;;
58928;SDS011;44713;53.378;10.022;2023-03-29T12:04:20;12.43;;;7.57;;
58928;SDS011;44713;53.378;10.022;2023-03-29T12:07:06;11.07;;;7.85;;
58928;SDS011;44713;53.378;10.022;2023-03-29T12:09:38;10.30;;;6.63;;
58928;SDS011;44713;53.378;10.022;2023-03-29T12:12:06;9.75;;;6.40;;
58928;SDS011;44713;53.378;10.022;2023-03-29T12:17:33;7.90;;;6.47;;
58928;SDS011;44713;53.378;10.022;2023-03-29T12:22:30;8.85;;;5.80;;
58928;SDS011;44713;53.378;10.022;2023-03-29T12:24:56;7.57;;;5.72;;
58928;SDS011;44713;53.378;10.022;2023-03-29T12:32:45;6.53;;;5.50;;
58928;SDS011;44713;53.378;10.022;2023-03-29T12:35:50;7.03;;;5.15;;
58928;SDS011;44713;53.378;10.022;2023-03-29T12:38:53;9.27;;;5.18;;
58928;SDS011;44713;53.378;10.022;2023-03-29T12:41:37;7.15;;;5.57;;
58928;SDS011;44713;53.378;10.022;2023-03-29T12:44:34;6.32;;;4.93;;
58928;SDS011;44713;53.378;10.022;2023-03-29T12:47:19;6.18;;;5.43;;
58928;SDS011;44713;53.378;10.022;2023-03-29T12:49:50;8.57;;;5.53;;
58928;SDS011;44713;53.378;10.022;2023-03-29T12:52:30;8.68;;;5.53;;
58928;SDS011;44713;53.378;10.022;2023-03-29T12:54:59;8.32;;;5.53;;
58928;SDS011;44713;53.378;10.022;2023-03-29T12:57:38;7.00;;;5.07;;
58928;SDS011;44713;53.378;10.022;2023-03-29T13:00:54;6.28;;;5.53;;
58928;SDS011;44713;53.378;10.022;2023-03-29T13:03:02;7.70;;;5.25;;
58928;SDS011;44713;53.378;10.022;2023-03-29T13:05:43;7.22;;;5.15;;
58928;SDS011;44713;53.378;10.022;2023-03-29T13:08:22;7.75;;;5.20;;
58928;SDS011;44713;53.378;10.022;2023-03-29T13:10:52;9.77;;;5.25;;
58928;SDS011;44713;53.378;10.022;2023-03-29T13:13:26;7.15;;;5.80;;
58928;SDS011;44713;53.378;10.022;2023-03-29T13:15:54;8.38;;;6.28;;
58928;SDS011;44713;53.378;10.022;2023-03-29T13:18:34;15.15;;;5.93;;
58928;SDS011;44713;53.378;10.022;2023-03-29T13:27:22;7.25;;;5.80;;
58928;SDS011;44713;53.378;10.022;2023-03-29T13:30:17;6.95;;;5.35;;
58928;SDS011;44713;53.378;10.022;2023-03-29T13:32:47;6.80;;;5.10;;
58928;SDS011;44713;53.378;10.022;2023-03-29T13:35:36;6.43;;;5.45;;
58928;SDS011;44713;53.378;10.022;2023-03-29T13:38:21;7.80;;;5.45;;
58928;SDS011;44713;53.378;10.022;2023-03-29T13:40:58;7.38;;;5.93;;
58928;SDS011;44713;53.378;10.022;2023-03-29T13:43:33;8.30;;;5.90;;
58928;SDS011;44713;53.378;10.022;2023-03-29T13:49:02;7.18;;;5.78;;
58928;SDS011;44713;53.378;10.022;2023-03-29T13:51:36;7.28;;;5.75;;
58928;SDS011;44713;53.378;10.022;2023-03-29T13:57:10;8.25;;;6.07;;
58928;SDS011;44713;53.378;10.022;2023-03-29T14:02:20;8.48;;;6.60;;
58928;SDS011;44713;53.378;10.022;2023-03-29T14:05:02;9.80;;;6.85;;
58928;SDS011;44713;53.378;10.022;2023-03-29T14:07:31;7.35;;;6.55;;
58928;SDS011;44713;53.378;10.022;2023-03-29T14:10:00;9.38;;;6.47;;
58928;SDS011;44713;53.378;10.022;2023-03-29T14:12:28;8.88;;;5.97;;
58928;SDS011;44713;53.378;10.022;2023-03-29T14:14:59;7.18;;;6.45;;
58928;SDS011;44713;53.378;10.022;2023-03-29T14:17:26;8.10;;;6.55;;
58928;SDS011;44713;53.378;10.022;2023-03-29T14:19:52;9.50;;;6.55;;
58928;SDS011;44713;53.378;10.022;2023-03-29T14:22:20;8.90;;;7.32;;
58928;SDS011;44713;53.378;10.022;2023-03-29T14:24:55;11.93;;;7.45;;
58928;SDS011;44713;53.378;10.022;2023-03-29T14:27:28;10.93;;;7.65;;
58928;SDS011;44713;53.378;10.022;2023-03-29T14:29:55;9.85;;;7.20;;
58928;SDS011;44713;53.378;10.022;2023-03-29T14:32:26;9.98;;;8.55;;
58928;SDS011;44713;53.378;10.022;2023-03-29T14:34:53;12.18;;;7.82;;
58928;SDS011;44713;53.378;10.022;2023-03-29T14:37:23;9.15;;;7.65;;
58928;SDS011;44713;53.378;10.022;2023-03-29T14:39:50;8.60;;;7.70;;
58928;SDS011;44713;53.378;10.022;2023-03-29T14:42:17;10.35;;;8.02;;
58928;SDS011;44713;53.378;10.022;2023-03-29T14:44:45;9.52;;;8.02;;
58928;SDS011;44713;53.378;10.022;2023-03-29T14:47:23;11.07;;;7.97;;
58928;SDS011;44713;53.378;10.022;2023-03-29T14:49:51;11.25;;;7.63;;
58928;SDS011;44713;53.378;10.022;2023-03-29T14:52:18;7.97;;;7.18;;
58928;SDS011;44713;53.378;10.022;2023-03-29T14:54:45;12.50;;;7.90;;
58928;SDS011;44713;53.378;10.022;2023-03-29T14:57:13;8.82;;;7.53;;
58928;SDS011;44713;53.378;10.022;2023-03-29T14:59:41;10.38;;;8.05;;
58928;SDS011;44713;53.378;10.022;2023-03-29T15:05:00;12.52;;;7.47;;
58928;SDS011;44713;53.378;10.022;2023-03-29T15:07:27;13.32;;;7.45;;
58928;SDS011;44713;53.378;10.022;2023-03-29T15:09:54;12.95;;;7.85;;
58928;SDS011;44713;53.378;10.022;2023-03-29T15:12:21;8.02;;;6.65;;
58928;SDS011;44713;53.378;10.022;2023-03-29T15:14:49;10.15;;;7.45;;
58928;SDS011;44713;53.378;10.022;2023-03-29T15:19:59;10.25;;;7.60;;
58928;SDS011;44713;53.378;10.022;2023-03-29T15:22:35;9.80;;;7.20;;
58928;SDS011;44713;53.378;10.022;2023-03-29T15:25:01;10.50;;;7.43;;
58928;SDS011;44713;53.378;10.022;2023-03-29T15:27:27;8.65;;;7.53;;
58928;SDS011;44713;53.378;10.022;2023-03-29T15:29:59;10.52;;;7.72;;
58928;SDS011;44713;53.378;10.022;2023-03-29T15:32:32;8.63;;;7.57;;
58928;SDS011;44713;53.378;10.022;2023-03-29T15:34:59;9.88;;;7.72;;
58928;SDS011;44713;53.378;10.022;2023-03-29T15:37:26;8.93;;;7.80;;
58928;SDS011;44713;53.378;10.022;2023-03-29T15:39:52;10.20;;;7.68;;
58928;SDS011;44713;53.378;10.022;2023-03-29T15:42:18;11.48;;;7.40;;
58928;SDS011;44713;53.378;10.022;2023-03-29T15:44:44;10.00;;;7.85;;
58928;SDS011;44713;53.378;10.022;2023-03-29T15:47:10;12.10;;;7.38;;
58928;SDS011;44713;53.378;10.022;2023-03-29T15:49:36;11.52;;;6.85;;
58928;SDS011;44713;53.378;10.022;2023-03-29T15:52:01;9.80;;;6.93;;
58928;SDS011;44713;53.378;10.022;2023-03-29T15:54:27;11.95;;;7.40;;
58928;SDS011;44713;53.378;10.022;2023-03-29T15:57:13;10.68;;;7.55;;
58928;SDS011;44713;53.378;10.022;2023-03-29T15:59:40;14.75;;;6.80;;
58928;SDS011;44713;53.378;10.022;2023-03-29T16:02:08;11.82;;;7.75;;
58928;SDS011;44713;53.378;10.022;2023-03-29T16:04:37;10.68;;;7.32;;
58928;SDS011;44713;53.378;10.022;2023-03-29T16:07:05;11.20;;;7.63;;
58928;SDS011;44713;53.378;10.022;2023-03-29T16:09:34;11.63;;;7.85;;
58928;SDS011;44713;53.378;10.022;2023-03-29T16:12:01;9.57;;;7.10;;
58928;SDS011;44713;53.378;10.022;2023-03-29T16:14:27;11.57;;;7.53;;
58928;SDS011;44713;53.378;10.022;2023-03-29T16:16:55;11.35;;;7.20;;
58928;SDS011;44713;53.378;10.022;2023-03-29T16:19:22;9.38;;;7.25;;
58928;SDS011;44713;53.378;10.022;2023-03-29T16:21:48;9.85;;;6.85;;
58928;SDS011;44713;53.378;10.022;2023-03-29T16:24:14;9.32;;;7.32;;
58928;SDS011;44713;53.378;10.022;2023-03-29T16:26:43;10.65;;;7.00;;
58928;SDS011;44713;53.378;10.022;2023-03-29T16:29:09;12.13;;;6.90;;